createdAt,value
2024-01-20T00:00:24.261Z,22.52
2024-01-20T00:02:51.325Z,21.73
2024-01-20T00:05:18.736Z,20.50
2024-01-20T00:07:46.177Z,22.65
2024-01-20T00:10:13.777Z,20.50
2024-01-20T00:12:43.446Z,22.00
2024-01-20T00:15:12.401Z,19.30
2024-01-20T00:17:41.238Z,20.45
2024-01-20T00:20:10.385Z,20.67
2024-01-20T00:22:38.000Z,24.80
2024-01-20T00:25:05.670Z,22.73
2024-01-20T00:27:32.854Z,28.80
2024-01-20T00:30:01.037Z,22.88
2024-01-20T00:32:29.471Z,27.73
2024-01-20T00:35:05.985Z,24.00
2024-01-20T00:37:37.100Z,27.05
2024-01-20T00:40:05.756Z,27.35
2024-01-20T00:42:32.853Z,26.45
2024-01-20T00:44:59.851Z,27.35
2024-01-20T00:47:26.912Z,26.08
2024-01-20T00:49:54.002Z,27.48
2024-01-20T00:52:20.990Z,26.13
2024-01-20T00:54:48.033Z,25.05
2024-01-20T00:57:15.082Z,23.60
2024-01-20T00:59:42.066Z,23.33
2024-01-20T01:02:09.162Z,21.77
2024-01-20T01:04:36.483Z,21.02
2024-01-20T01:07:04.197Z,17.95
2024-01-20T01:09:31.270Z,17.52
2024-01-20T01:11:58.539Z,18.85
2024-01-20T01:14:25.814Z,17.05
2024-01-20T01:16:53.178Z,18.48
2024-01-20T01:19:20.455Z,16.13
2024-01-20T01:21:47.400Z,21.38
2024-01-20T01:24:14.382Z,18.17
2024-01-20T01:26:42.115Z,21.33
2024-01-20T01:29:09.275Z,17.33
2024-01-20T01:31:36.352Z,20.58
2024-01-20T01:34:03.598Z,17.23
2024-01-20T01:36:30.588Z,15.90
2024-01-20T01:38:57.636Z,15.32
2024-01-20T01:41:24.652Z,14.25
2024-01-20T01:43:51.679Z,15.68
2024-01-20T01:46:18.993Z,15.45
2024-01-20T01:48:46.476Z,61.60
2024-01-20T01:51:13.914Z,19.67
2024-01-20T01:53:41.993Z,17.15
2024-01-20T01:56:10.518Z,13.77
2024-01-20T01:58:37.584Z,13.07
2024-01-20T02:01:05.021Z,13.43
2024-01-20T02:03:32.545Z,16.63
2024-01-20T02:05:59.899Z,15.13
2024-01-20T02:08:28.241Z,13.80
2024-01-20T02:10:55.996Z,10.60
2024-01-20T02:13:23.346Z,13.65
2024-01-20T02:15:50.751Z,11.93
2024-01-20T02:18:18.027Z,13.93
2024-01-20T02:20:45.096Z,13.77
2024-01-20T02:23:12.032Z,12.77
2024-01-20T02:25:39.178Z,13.90
2024-01-20T02:28:06.314Z,14.27
2024-01-20T02:30:33.452Z,10.13
2024-01-20T02:33:00.714Z,11.25
2024-01-20T02:35:27.759Z,10.77
2024-01-20T02:37:54.711Z,11.52
2024-01-20T02:40:21.780Z,10.57
2024-01-20T02:42:49.068Z,12.02
2024-01-20T02:45:16.093Z,11.85
2024-01-20T02:47:43.704Z,13.60
2024-01-20T02:50:11.318Z,12.80
2024-01-20T02:52:38.474Z,15.45
2024-01-20T02:55:05.844Z,12.60
2024-01-20T02:57:32.952Z,14.52
2024-01-20T03:00:00.402Z,12.18
2024-01-20T03:02:27.430Z,12.45
2024-01-20T03:04:54.469Z,10.63
2024-01-20T03:07:21.487Z,12.48
2024-01-20T03:09:48.968Z,10.98
2024-01-20T03:12:16.062Z,13.00
2024-01-20T03:14:43.055Z,11.57
2024-01-20T03:17:10.286Z,13.90
2024-01-20T03:19:37.351Z,15.57
2024-01-20T03:22:04.507Z,13.27
2024-01-20T03:24:31.613Z,12.20
2024-01-20T03:26:59.807Z,10.95
2024-01-20T03:29:27.155Z,10.07
2024-01-20T03:31:54.146Z,10.90
2024-01-20T03:34:21.877Z,11.15
2024-01-20T03:36:49.130Z,11.13
2024-01-20T03:39:16.969Z,10.15
2024-01-20T03:41:44.812Z,13.13
2024-01-20T03:44:11.721Z,10.50
2024-01-20T03:46:38.829Z,10.93
2024-01-20T03:49:06.216Z,11.73
2024-01-20T03:51:33.377Z,9.10
2024-01-20T03:54:02.896Z,10.82
2024-01-20T03:56:30.105Z,10.65
2024-01-20T03:58:57.022Z,10.57
2024-01-20T04:01:25.528Z,10.45
2024-01-20T04:03:52.989Z,9.30
2024-01-20T04:06:20.137Z,8.73
2024-01-20T04:08:47.188Z,7.85
2024-01-20T04:11:16.752Z,6.88
2024-01-20T04:13:44.472Z,11.37
2024-01-20T04:16:11.668Z,7.43
2024-01-20T04:18:38.794Z,8.65
2024-01-20T04:21:06.377Z,6.10
2024-01-20T04:23:33.342Z,6.70
2024-01-20T04:26:00.282Z,6.68
2024-01-20T04:28:27.305Z,6.75
2024-01-20T04:30:54.420Z,7.00
2024-01-20T04:33:21.521Z,6.82
2024-01-20T04:35:48.639Z,8.20
2024-01-20T04:38:15.874Z,8.82
2024-01-20T04:40:42.931Z,7.18
2024-01-20T04:43:09.856Z,8.55
2024-01-20T04:45:36.898Z,6.80
2024-01-20T04:48:04.623Z,7.63
2024-01-20T04:50:31.731Z,6.90
2024-01-20T04:52:58.819Z,7.10
2024-01-20T04:55:25.858Z,8.48
2024-01-20T04:57:52.799Z,8.68
2024-01-20T05:00:19.937Z,9.27
2024-01-20T05:02:47.410Z,9.20
2024-01-20T05:05:14.524Z,9.20
2024-01-20T05:07:41.611Z,7.82
2024-01-20T05:10:08.994Z,7.50
2024-01-20T05:12:36.035Z,7.38
2024-01-20T05:15:03.200Z,6.70
2024-01-20T05:17:30.451Z,7.95
2024-01-20T05:19:57.583Z,7.60
2024-01-20T05:22:24.567Z,7.25
2024-01-20T05:24:51.489Z,7.88
2024-01-20T05:27:18.545Z,7.78
2024-01-20T05:29:45.551Z,6.80
2024-01-20T05:32:12.660Z,7.47
2024-01-20T05:34:39.878Z,5.72
2024-01-20T05:37:07.059Z,6.47
2024-01-20T05:39:35.138Z,9.00
2024-01-20T05:42:02.169Z,6.18
2024-01-20T05:44:29.527Z,5.65
2024-01-20T05:46:56.613Z,6.82
2024-01-20T05:49:23.856Z,7.80
2024-01-20T05:51:50.949Z,5.68
2024-01-20T05:54:17.984Z,6.10
2024-01-20T05:56:44.942Z,5.13
2024-01-20T05:59:12.565Z,5.50
2024-01-20T06:01:39.687Z,6.45
2024-01-20T06:04:06.990Z,7.95
2024-01-20T06:06:34.014Z,6.05
2024-01-20T06:09:01.094Z,6.35
2024-01-20T06:11:28.211Z,5.47
2024-01-20T06:13:55.225Z,4.82
2024-01-20T06:16:22.267Z,7.50
2024-01-20T06:18:49.402Z,5.50
2024-01-20T06:21:25.322Z,5.28
2024-01-20T06:23:52.427Z,5.45
2024-01-20T06:26:19.563Z,5.32
2024-01-20T06:28:46.622Z,6.65
2024-01-20T06:31:27.286Z,6.93
2024-01-20T06:33:55.366Z,5.40
2024-01-20T06:36:26.125Z,5.65
2024-01-20T06:38:53.602Z,6.53
2024-01-20T06:41:21.115Z,5.20
2024-01-20T06:43:48.349Z,5.20
2024-01-20T06:46:15.488Z,6.03
2024-01-20T06:48:42.623Z,4.47
2024-01-20T06:51:16.140Z,5.03
2024-01-20T06:53:46.291Z,4.97
2024-01-20T06:56:13.310Z,4.93
2024-01-20T06:58:40.414Z,6.75
2024-01-20T07:01:07.609Z,4.82
2024-01-20T07:03:34.696Z,5.85
2024-01-20T07:06:02.140Z,5.40
2024-01-20T07:08:29.434Z,5.35
2024-01-20T07:10:56.405Z,6.13
2024-01-20T07:13:23.347Z,5.80
2024-01-20T07:15:50.386Z,9.10
2024-01-20T07:18:17.479Z,5.50
2024-01-20T07:20:45.915Z,4.45
2024-01-20T07:23:12.887Z,4.97
2024-01-20T07:25:40.697Z,5.68
2024-01-20T07:28:08.003Z,6.40
2024-01-20T07:30:35.303Z,5.13
2024-01-20T07:33:02.657Z,8.65
2024-01-20T07:35:29.769Z,6.00
2024-01-20T07:38:00.432Z,5.47
2024-01-20T07:40:27.439Z,6.60
2024-01-20T07:42:54.380Z,5.18
2024-01-20T07:45:21.543Z,6.82
2024-01-20T07:47:48.898Z,5.88
2024-01-20T07:50:16.034Z,5.22
2024-01-20T07:52:43.041Z,7.63
2024-01-20T07:55:10.230Z,7.20
2024-01-20T07:57:38.077Z,6.90
2024-01-20T08:00:06.138Z,7.22
2024-01-20T08:02:35.496Z,4.57
2024-01-20T08:05:02.876Z,4.93
2024-01-20T08:07:29.865Z,5.45
2024-01-20T08:09:56.957Z,4.97
2024-01-20T08:12:24.043Z,4.88
2024-01-20T08:14:51.055Z,5.57
2024-01-20T08:17:18.537Z,5.38
2024-01-20T08:19:46.736Z,5.80
2024-01-20T08:22:14.783Z,4.13
2024-01-20T08:24:42.061Z,5.93
2024-01-20T08:27:09.168Z,6.88
2024-01-20T08:29:37.187Z,6.78
2024-01-20T08:32:04.514Z,5.47
2024-01-20T08:34:31.901Z,5.35
2024-01-20T08:36:59.081Z,6.22
2024-01-20T08:39:26.133Z,5.95
2024-01-20T08:41:53.888Z,6.13
2024-01-20T08:44:20.888Z,6.90
2024-01-20T08:46:48.952Z,6.55
2024-01-20T08:49:16.266Z,7.75
2024-01-20T08:51:43.273Z,7.10
2024-01-20T08:54:10.624Z,7.85
2024-01-20T08:56:37.532Z,7.10
2024-01-20T08:59:04.484Z,8.50
2024-01-20T09:01:31.567Z,6.78
2024-01-20T09:03:58.779Z,6.53
2024-01-20T09:06:25.842Z,5.80
2024-01-20T09:08:52.832Z,4.95
2024-01-20T09:11:20.476Z,6.75
2024-01-20T09:13:48.015Z,7.72
2024-01-20T09:16:15.239Z,13.77
2024-01-20T09:18:42.939Z,8.98
2024-01-20T09:21:12.973Z,13.60
2024-01-20T09:23:40.253Z,9.32
2024-01-20T09:26:07.193Z,5.97
2024-01-20T09:28:34.099Z,7.32
2024-01-20T09:31:01.121Z,7.22
2024-01-20T09:33:28.205Z,5.40
2024-01-20T09:35:55.255Z,4.82
2024-01-20T09:38:22.339Z,5.28
2024-01-20T09:40:49.360Z,4.25
2024-01-20T09:43:16.573Z,4.22
2024-01-20T09:45:43.782Z,5.35
2024-01-20T09:48:11.093Z,4.10
2024-01-20T09:50:38.284Z,3.75
2024-01-20T09:53:17.079Z,3.15
2024-01-20T09:55:45.868Z,4.10
2024-01-20T09:58:14.034Z,4.25
2024-01-20T10:00:42.966Z,4.00
2024-01-20T10:03:12.533Z,3.50
2024-01-20T10:05:40.045Z,4.63
2024-01-20T10:08:07.602Z,4.28
2024-01-20T10:10:35.215Z,4.22
2024-01-20T10:13:02.559Z,4.22
2024-01-20T10:15:34.286Z,3.17
2024-01-20T10:18:10.443Z,3.25
2024-01-20T10:20:38.302Z,4.15
2024-01-20T10:23:07.487Z,3.90
2024-01-20T10:25:34.704Z,4.95
2024-01-20T10:28:01.750Z,2.97
2024-01-20T10:30:30.410Z,4.18
2024-01-20T10:33:08.770Z,4.88
2024-01-20T10:35:38.567Z,4.55
2024-01-20T10:38:12.011Z,3.85
2024-01-20T10:40:42.428Z,3.85
2024-01-20T10:43:17.177Z,3.67
2024-01-20T10:46:09.961Z,6.55
2024-01-20T10:48:42.564Z,4.05
2024-01-20T10:51:12.777Z,5.53
2024-01-20T10:53:40.639Z,4.35
2024-01-20T10:56:09.505Z,5.18
2024-01-20T10:58:47.673Z,7.93
2024-01-20T11:01:15.216Z,9.45
2024-01-20T11:03:43.038Z,5.50
2024-01-20T11:06:24.404Z,6.20
2024-01-20T11:08:52.747Z,5.47
2024-01-20T11:11:28.763Z,6.40
2024-01-20T11:14:03.032Z,7.10
2024-01-20T11:16:34.406Z,6.32
2024-01-20T11:21:35.766Z,4.22
2024-01-20T11:24:03.094Z,5.10
2024-01-20T11:26:34.808Z,4.93
2024-01-20T11:29:04.602Z,6.57
2024-01-20T11:31:32.514Z,5.88
2024-01-20T11:34:04.270Z,4.90
2024-01-20T11:36:32.632Z,5.72
2024-01-20T11:39:04.835Z,6.45
2024-01-20T11:41:31.937Z,6.20
2024-01-20T11:43:58.887Z,11.68
2024-01-20T11:46:26.044Z,4.70
2024-01-20T11:48:54.241Z,4.03
2024-01-20T11:51:22.210Z,5.78
2024-01-20T11:53:49.510Z,4.68
2024-01-20T11:56:17.406Z,7.35
2024-01-20T11:58:44.423Z,5.32
2024-01-20T12:01:12.012Z,6.53
2024-01-20T12:03:39.238Z,4.20
2024-01-20T12:06:10.457Z,6.53
2024-01-20T12:08:42.217Z,7.50
2024-01-20T12:11:19.081Z,7.82
2024-01-20T12:13:49.657Z,6.03
2024-01-20T12:16:18.000Z,3.25
2024-01-20T12:18:45.321Z,6.55
2024-01-20T12:21:12.383Z,6.15
2024-01-20T12:23:39.664Z,6.13
2024-01-20T12:26:14.839Z,8.55
2024-01-20T12:28:46.580Z,5.55
2024-01-20T12:31:16.368Z,5.50
2024-01-20T12:33:45.254Z,4.70
2024-01-20T12:36:12.623Z,6.57
2024-01-20T12:38:39.639Z,6.43
2024-01-20T12:41:06.603Z,9.13
2024-01-20T12:43:33.601Z,7.63
2024-01-20T12:46:00.590Z,5.82
2024-01-20T12:48:28.206Z,5.63
2024-01-20T12:50:55.439Z,6.80
2024-01-20T12:53:22.870Z,7.22
2024-01-20T12:55:50.074Z,5.80
2024-01-20T12:58:17.018Z,6.78
2024-01-20T13:00:44.111Z,6.28
2024-01-20T13:03:11.223Z,5.68
2024-01-20T13:05:38.406Z,7.32
2024-01-20T13:08:05.833Z,7.18
2024-01-20T13:10:32.948Z,5.65
2024-01-20T13:12:59.953Z,4.13
2024-01-20T13:15:27.380Z,4.45
2024-01-20T13:17:54.682Z,4.63
2024-01-20T13:20:21.633Z,4.80
2024-01-20T13:22:48.952Z,4.55
2024-01-20T13:25:15.992Z,5.15
2024-01-20T13:27:43.124Z,6.05
2024-01-20T13:30:10.796Z,4.47
2024-01-20T13:32:37.935Z,3.42
2024-01-20T13:35:05.569Z,4.40
2024-01-20T13:37:32.591Z,4.15
2024-01-20T13:40:06.284Z,5.75
2024-01-20T13:42:33.405Z,4.78
2024-01-20T13:45:00.548Z,4.57
2024-01-20T13:47:28.669Z,4.25
2024-01-20T13:49:56.163Z,5.43
2024-01-20T13:52:23.205Z,4.03
2024-01-20T13:54:50.711Z,5.38
2024-01-20T13:57:18.383Z,4.50
2024-01-20T13:59:45.599Z,5.43
2024-01-20T14:02:12.580Z,5.40
2024-01-20T14:04:40.589Z,8.38
2024-01-20T14:07:10.034Z,3.90
2024-01-20T14:09:37.126Z,7.60
2024-01-20T14:12:04.622Z,5.75
2024-01-20T14:14:31.632Z,6.22
2024-01-20T14:17:01.041Z,5.70
2024-01-20T14:19:29.059Z,5.45
2024-01-20T14:21:56.540Z,6.30
2024-01-20T14:24:23.721Z,5.50
2024-01-20T14:26:51.006Z,5.03
2024-01-20T14:29:18.082Z,6.03
2024-01-20T14:31:49.819Z,6.85
2024-01-20T14:34:17.783Z,5.15
2024-01-20T14:36:48.978Z,5.57
2024-01-20T14:39:19.557Z,6.10
2024-01-20T14:41:47.208Z,5.73
2024-01-20T14:44:14.563Z,6.25
2024-01-20T14:46:42.360Z,4.97
2024-01-20T14:49:09.600Z,6.65
2024-01-20T14:51:36.877Z,6.32
2024-01-20T14:54:06.961Z,5.43
2024-01-20T14:56:37.200Z,6.15
2024-01-20T14:59:04.628Z,6.85
2024-01-20T15:01:32.487Z,7.88
2024-01-20T15:03:59.625Z,5.85
2024-01-20T15:06:27.887Z,6.65
2024-01-20T15:08:55.017Z,7.55
2024-01-20T15:11:22.345Z,5.88
2024-01-20T15:13:49.290Z,7.55
2024-01-20T15:16:17.532Z,6.10
2024-01-20T15:18:44.655Z,7.82
2024-01-20T15:21:11.795Z,6.82
2024-01-20T15:23:39.321Z,7.18
2024-01-20T15:26:07.434Z,7.60
2024-01-20T15:28:34.514Z,7.47
2024-01-20T15:31:01.558Z,7.70
2024-01-20T15:33:28.690Z,9.23
2024-01-20T15:35:55.790Z,10.07
2024-01-20T15:38:22.747Z,9.55
2024-01-20T15:40:50.297Z,12.25
2024-01-20T15:43:17.367Z,7.88
2024-01-20T15:45:44.627Z,7.13
2024-01-20T15:48:13.090Z,6.50
2024-01-20T15:50:40.350Z,8.55
2024-01-20T15:53:07.404Z,8.07
2024-01-20T15:55:34.435Z,9.02
2024-01-20T15:58:01.413Z,6.97
2024-01-20T16:00:28.437Z,8.50
2024-01-20T16:02:55.597Z,7.22
2024-01-20T16:05:22.722Z,7.85
2024-01-20T16:07:49.900Z,9.32
2024-01-20T16:10:16.872Z,7.25
2024-01-20T16:12:43.901Z,6.38
2024-01-20T16:15:12.797Z,7.30
2024-01-20T16:17:42.080Z,7.90
2024-01-20T16:20:10.021Z,6.78
2024-01-20T16:22:37.149Z,7.80
2024-01-20T16:25:04.392Z,7.53
2024-01-20T16:27:31.382Z,7.82
2024-01-20T16:29:58.377Z,7.40
2024-01-20T16:32:25.624Z,6.05
2024-01-20T16:34:54.014Z,6.32
2024-01-20T16:37:21.167Z,6.93
2024-01-20T16:39:49.136Z,8.30
2024-01-20T16:42:16.225Z,8.32
2024-01-20T16:44:43.860Z,9.02
2024-01-20T16:47:11.007Z,11.00
2024-01-20T16:49:38.273Z,9.65
2024-01-20T16:52:07.382Z,8.30
2024-01-20T16:54:34.621Z,8.52
2024-01-20T16:57:02.209Z,8.95
2024-01-20T16:59:30.586Z,7.88
2024-01-20T17:01:58.725Z,9.07
2024-01-20T17:04:26.192Z,10.13
2024-01-20T17:06:53.524Z,12.23
2024-01-20T17:09:20.559Z,10.50
2024-01-20T17:11:47.698Z,10.65
2024-01-20T17:14:18.985Z,12.00
2024-01-20T17:16:49.247Z,13.60
2024-01-20T17:19:16.352Z,12.23
2024-01-20T17:21:43.435Z,10.55
2024-01-20T17:24:10.716Z,14.57
2024-01-20T17:26:37.795Z,12.02
2024-01-20T17:29:04.821Z,13.07
2024-01-20T17:31:35.055Z,11.05
2024-01-20T17:34:04.287Z,12.68
2024-01-20T17:36:31.528Z,12.95
2024-01-20T17:38:59.370Z,13.75
2024-01-20T17:41:26.341Z,11.57
2024-01-20T17:43:53.278Z,12.27
2024-01-20T17:46:20.463Z,11.50
2024-01-20T17:48:47.554Z,10.68
2024-01-20T17:51:14.594Z,12.30
2024-01-20T17:53:41.621Z,12.32
2024-01-20T17:56:08.567Z,11.48
2024-01-20T17:58:35.539Z,10.43
2024-01-20T18:01:02.818Z,11.30
2024-01-20T18:03:30.034Z,10.13
2024-01-20T18:05:57.364Z,10.80
2024-01-20T18:08:25.511Z,11.60
2024-01-20T18:10:52.636Z,12.68
2024-01-20T18:13:19.845Z,11.80
2024-01-20T18:15:47.003Z,9.30
2024-01-20T18:18:14.467Z,11.60
2024-01-20T18:20:41.631Z,11.20
2024-01-20T18:23:08.707Z,13.30
2024-01-20T18:25:36.512Z,12.50
2024-01-20T18:28:06.067Z,10.88
2024-01-20T18:30:34.460Z,12.32
2024-01-20T18:33:01.794Z,10.38
2024-01-20T18:35:29.172Z,10.30
2024-01-20T18:37:56.195Z,12.52
2024-01-20T18:40:23.238Z,13.68
2024-01-20T18:42:51.121Z,14.32
2024-01-20T18:45:19.130Z,12.77
2024-01-20T18:47:47.131Z,12.10
2024-01-20T18:50:15.087Z,11.25
2024-01-20T18:52:42.051Z,12.73
2024-01-20T18:55:09.837Z,12.85
2024-01-20T18:57:36.950Z,13.80
2024-01-20T19:00:05.378Z,12.68
2024-01-20T19:02:32.868Z,9.10
2024-01-20T19:05:00.051Z,13.13
2024-01-20T19:07:27.046Z,12.90
2024-01-20T19:09:54.162Z,10.25
2024-01-20T19:12:21.371Z,12.75
2024-01-20T19:14:51.506Z,13.40
2024-01-20T19:17:18.475Z,15.32
2024-01-20T19:19:45.842Z,12.63
2024-01-20T19:22:13.268Z,12.20
2024-01-20T19:24:40.442Z,13.40
2024-01-20T19:27:10.935Z,13.98
2024-01-20T19:29:38.088Z,10.15
2024-01-20T19:32:05.334Z,13.75
2024-01-20T19:34:32.426Z,12.57
2024-01-20T19:36:59.562Z,12.25
2024-01-20T19:39:26.601Z,12.23
2024-01-20T19:41:53.795Z,12.93
2024-01-20T19:44:21.430Z,13.88
2024-01-20T19:46:48.688Z,12.55
2024-01-20T19:49:16.107Z,10.68
2024-01-20T19:51:43.593Z,13.32
2024-01-20T19:54:12.715Z,13.73
2024-01-20T19:56:46.777Z,13.63
2024-01-20T19:59:15.136Z,12.85
2024-01-20T20:01:45.968Z,14.35
2024-01-20T20:04:17.134Z,13.55
2024-01-20T20:06:46.187Z,12.80
2024-01-20T20:09:17.593Z,14.32
2024-01-20T20:14:12.871Z,12.27
2024-01-20T20:16:41.278Z,13.52
2024-01-20T20:19:09.324Z,12.10
2024-01-20T20:21:36.547Z,11.40
2024-01-20T20:24:03.651Z,12.98
2024-01-20T20:26:31.529Z,12.32
2024-01-20T20:28:58.609Z,13.38
2024-01-20T20:31:28.148Z,12.13
2024-01-20T20:33:55.340Z,14.18
2024-01-20T20:36:22.736Z,12.68
2024-01-20T20:38:49.848Z,15.02
2024-01-20T20:41:16.781Z,12.60
2024-01-20T20:43:43.723Z,14.20
2024-01-20T20:46:10.797Z,15.60
2024-01-20T20:48:37.811Z,12.75
2024-01-20T20:51:05.289Z,14.90
2024-01-20T20:53:32.362Z,14.00
2024-01-20T20:55:59.483Z,14.23
2024-01-20T20:58:26.624Z,13.15
2024-01-20T21:00:53.854Z,14.82
2024-01-20T21:03:22.254Z,14.15
2024-01-20T21:05:49.464Z,12.77
2024-01-20T21:08:16.858Z,15.60
2024-01-20T21:10:45.079Z,14.65
2024-01-20T21:13:12.990Z,12.85
2024-01-20T21:15:41.782Z,13.13
2024-01-20T21:18:09.438Z,13.60
2024-01-20T21:20:36.556Z,12.52
2024-01-20T21:23:04.690Z,16.40
2024-01-20T21:25:31.756Z,17.45
2024-01-20T21:27:58.812Z,14.45
2024-01-20T21:30:28.248Z,14.00
2024-01-20T21:32:55.629Z,13.00
2024-01-20T21:35:23.045Z,14.05
2024-01-20T21:37:50.269Z,13.50
2024-01-20T21:40:17.268Z,15.07
2024-01-20T21:42:44.310Z,13.25
2024-01-20T21:45:11.551Z,13.80
2024-01-20T21:47:38.637Z,13.02
2024-01-20T21:50:07.470Z,14.60
2024-01-20T21:52:34.810Z,14.20
2024-01-20T21:55:03.054Z,13.63
2024-01-20T21:57:30.245Z,11.98
2024-01-20T21:59:58.986Z,12.20
2024-01-20T22:02:28.616Z,11.98
2024-01-20T22:04:55.847Z,13.10
2024-01-20T22:07:23.435Z,10.50
2024-01-20T22:09:50.627Z,12.15
2024-01-20T22:12:17.745Z,11.63
2024-01-20T22:14:44.816Z,10.55
2024-01-20T22:17:11.830Z,11.82
2024-01-20T22:19:39.542Z,12.68
2024-01-20T22:22:06.629Z,14.60
2024-01-20T22:24:33.684Z,16.70
2024-01-20T22:27:00.644Z,13.95
2024-01-20T22:29:31.343Z,13.35
2024-01-20T22:31:59.309Z,14.88
2024-01-20T22:34:31.398Z,13.48
2024-01-20T22:36:59.995Z,13.23
2024-01-20T22:39:28.079Z,13.75
2024-01-20T22:41:55.517Z,12.82
2024-01-20T22:44:22.518Z,12.27
2024-01-20T22:46:50.692Z,13.80
2024-01-20T22:49:17.815Z,11.43
2024-01-20T22:51:45.027Z,11.90
2024-01-20T22:54:14.890Z,12.82
2024-01-20T22:56:42.091Z,11.20
2024-01-20T22:59:09.060Z,13.52
2024-01-20T23:01:36.206Z,12.82
2024-01-20T23:04:03.233Z,12.77
2024-01-20T23:06:31.180Z,13.40
2024-01-20T23:08:58.167Z,12.68
2024-01-20T23:11:25.073Z,15.90
2024-01-20T23:13:52.207Z,13.52
2024-01-20T23:16:19.333Z,12.68
2024-01-20T23:18:46.410Z,10.88
2024-01-20T23:21:13.708Z,9.77
2024-01-20T23:23:40.889Z,12.02
2024-01-20T23:26:07.808Z,11.95
2024-01-20T23:28:34.782Z,11.73
2024-01-20T23:31:01.848Z,13.07
2024-01-20T23:33:28.910Z,14.27
2024-01-20T23:35:55.991Z,13.05
2024-01-20T23:38:22.952Z,12.65
2024-01-20T23:40:49.989Z,10.18
2024-01-20T23:43:16.974Z,12.43
2024-01-20T23:45:46.755Z,12.82
2024-01-20T23:48:13.781Z,14.05
2024-01-20T23:50:43.436Z,11.32
2024-01-20T23:53:10.881Z,11.85
2024-01-20T23:55:37.891Z,11.43
2024-01-20T23:58:04.930Z,13.02
